sensor_id;sensor_type;location;lat;lon;timestamp;P1;durP1;ratioP1;P2;durP2;ratioP2
39214;SDS011;24932;51.746;14.334;2023-03-01T00:00:40;23.9;;;10.2;;
39214;SDS011;24932;51.746;14.334;2023-03-01T00:04:40;19.3;;;9.7;;
39214;SDS011;24932;51.746;14.334;2023-03-01T00:08:40;29.37;;;10.07;;
39214;SDS011;24932;51.746;14.334;2023-03-01T00:12:40;21.6;;;9.77;;
39214;SDS011;24932;51.746;14.334;2023-03-01T00:16:41;22.37;;;9.4;;
39214;SDS011;24932;51.746;14.334;2023-03-01T00:20:40;23.03;;;8.9;;
39214;SDS011;24932;51.746;14.334;2023-03-01T00:24:40;21.5;;;9.27;;
39214;SDS011;24932;51.746;14.334;2023-03-01T00:28:40;24.1;;;9.5;;
39214;SDS011;24932;51.746;14.334;2023-03-01T00:32:40;21.8;;;9.47;;
39214;SDS011;24932;51.746;14.334;2023-03-01T00:36:40;27.63;;;10.33;;
39214;SDS011;24932;51.746;14.334;2023-03-01T00:40:40;36.57;;;11.4;;
39214;SDS011;24932;51.746;14.334;2023-03-01T00:44:40;22.43;;;10.23;;
39214;SDS011;24932;51.746;14.334;2023-03-01T00:48:40;22.13;;;9.93;;
39214;SDS011;24932;51.746;14.334;2023-03-01T00:52:40;31.07;;;10.17;;
39214;SDS011;24932;51.746;14.334;2023-03-01T00:56:40;22.13;;;9.8;;
39214;SDS011;24932;51.746;14.334;2023-03-01T01:00:40;23.43;;;10.5;;
39214;SDS011;24932;51.746;14.334;2023-03-01T01:04:40;21.53;;;8.23;;
39214;SDS011;24932;51.746;14.334;2023-03-01T01:08:40;23.73;;;9.57;;
39214;SDS011;24932;51.746;14.334;2023-03-01T01:12:40;21.73;;;9.57;;
39214;SDS011;24932;51.746;14.334;2023-03-01T01:16:40;18.8;;;9.1;;
39214;SDS011;24932;51.746;14.334;2023-03-01T01:20:40;25.1;;;9.77;;
39214;SDS011;24932;51.746;14.334;2023-03-01T01:24:40;20.0;;;9.23;;
39214;SDS011;24932;51.746;14.334;2023-03-01T01:28:41;30.33;;;9.2;;
39214;SDS011;24932;51.746;14.334;2023-03-01T01:32:40;24.33;;;9.7;;
39214;SDS011;24932;51.746;14.334;2023-03-01T01:36:40;20.43;;;8.93;;
39214;SDS011;24932;51.746;14.334;2023-03-01T01:40:43;24.3;;;10.03;;
39214;SDS011;24932;51.746;14.334;2023-03-01T01:44:40;25.73;;;10.17;;
39214;SDS011;24932;51.746;14.334;2023-03-01T01:48:42;23.17;;;9.6;;
39214;SDS011;24932;51.746;14.334;2023-03-01T01:52:40;27.83;;;10.57;;
39214;SDS011;24932;51.746;14.334;2023-03-01T01:56:40;20.77;;;9.5;;
39214;SDS011;24932;51.746;14.334;2023-03-01T02:00:40;21.4;;;8.5;;
39214;SDS011;24932;51.746;14.334;2023-03-01T02:04:41;31.93;;;10.97;;
39214;SDS011;24932;51.746;14.334;2023-03-01T02:08:40;24.83;;;10.6;;
39214;SDS011;24932;51.746;14.334;2023-03-01T02:12:40;19.3;;;9.73;;
39214;SDS011;24932;51.746;14.334;2023-03-01T02:16:40;24.97;;;9.43;;
39214;SDS011;24932;51.746;14.334;2023-03-01T02:20:44;22.87;;;9.23;;
39214;SDS011;24932;51.746;14.334;2023-03-01T02:24:43;18.23;;;8.57;;
39214;SDS011;24932;51.746;14.334;2023-03-01T02:28:40;27.27;;;9.27;;
39214;SDS011;24932;51.746;14.334;2023-03-01T02:32:40;21.1;;;9.33;;
39214;SDS011;24932;51.746;14.334;2023-03-01T02:36:43;23.37;;;9.07;;
39214;SDS011;24932;51.746;14.334;2023-03-01T02:40:40;18.77;;;9.07;;
39214;SDS011;24932;51.746;14.334;2023-03-01T02:44:40;25.3;;;9.87;;
39214;SDS011;24932;51.746;14.334;2023-03-01T02:48:41;25.17;;;8.47;;
39214;SDS011;24932;51.746;14.334;2023-03-01T02:52:43;18.3;;;8.4;;
39214;SDS011;24932;51.746;14.334;2023-03-01T02:56:40;25.27;;;9.9;;
39214;SDS011;24932;51.746;14.334;2023-03-01T03:00:41;22.6;;;9.13;;
39214;SDS011;24932;51.746;14.334;2023-03-01T03:04:41;18.77;;;9.0;;
39214;SDS011;24932;51.746;14.334;2023-03-01T03:08:40;21.37;;;9.47;;
39214;SDS011;24932;51.746;14.334;2023-03-01T03:12:40;21.4;;;9.6;;
39214;SDS011;24932;51.746;14.334;2023-03-01T03:16:40;19.13;;;10.1;;
39214;SDS011;24932;51.746;14.334;2023-03-01T03:20:40;30.97;;;11.53;;
39214;SDS011;24932;51.746;14.334;2023-03-01T03:24:40;21.0;;;10.37;;
39214;SDS011;24932;51.746;14.334;2023-03-01T03:28:40;19.07;;;9.57;;
39214;SDS011;24932;51.746;14.334;2023-03-01T03:32:41;22.93;;;11.17;;
39214;SDS011;24932;51.746;14.334;2023-03-01T03:36:40;30.7;;;10.23;;
39214;SDS011;24932;51.746;14.334;2023-03-01T03:40:41;21.4;;;10.1;;
39214;SDS011;24932;51.746;14.334;2023-03-01T03:44:40;23.27;;;9.7;;
39214;SDS011;24932;51.746;14.334;2023-03-01T03:48:41;26.57;;;11.03;;
39214;SDS011;24932;51.746;14.334;2023-03-01T03:52:41;26.93;;;10.63;;
39214;SDS011;24932;51.746;14.334;2023-03-01T03:56:41;24.47;;;11.4;;
39214;SDS011;24932;51.746;14.334;2023-03-01T04:00:41;31.2;;;11.5;;
39214;SDS011;24932;51.746;14.334;2023-03-01T04:04:40;24.83;;;11.77;;
39214;SDS011;24932;51.746;14.334;2023-03-01T04:08:40;23.3;;;11.03;;
39214;SDS011;24932;51.746;14.334;2023-03-01T04:12:40;26.1;;;11.17;;
39214;SDS011;24932;51.746;14.334;2023-03-01T04:16:40;32.0;;;11.93;;
39214;SDS011;24932;51.746;14.334;2023-03-01T04:20:41;24.83;;;11.03;;
39214;SDS011;24932;51.746;14.334;2023-03-01T04:24:40;28.47;;;12.93;;
39214;SDS011;24932;51.746;14.334;2023-03-01T04:28:41;27.57;;;12.07;;
39214;SDS011;24932;51.746;14.334;2023-03-01T04:32:40;26.4;;;11.7;;
39214;SDS011;24932;51.746;14.334;2023-03-01T04:36:40;30.7;;;13.23;;
39214;SDS011;24932;51.746;14.334;2023-03-01T04:40:39;25.67;;;10.23;;
39214;SDS011;24932;51.746;14.334;2023-03-01T04:44:41;27.8;;;11.3;;
39214;SDS011;24932;51.746;14.334;2023-03-01T04:48:41;27.57;;;11.6;;
39214;SDS011;24932;51.746;14.334;2023-03-01T04:52:40;26.23;;;10.57;;
39214;SDS011;24932;51.746;14.334;2023-03-01T04:56:40;23.4;;;10.4;;
39214;SDS011;24932;51.746;14.334;2023-03-01T05:00:40;27.7;;;11.8;;
39214;SDS011;24932;51.746;14.334;2023-03-01T05:04:40;63.37;;;23.0;;
39214;SDS011;24932;51.746;14.334;2023-03-01T05:08:41;29.9;;;13.03;;
39214;SDS011;24932;51.746;14.334;2023-03-01T05:12:41;38.1;;;14.97;;
39214;SDS011;24932;51.746;14.334;2023-03-01T05:16:40;28.87;;;12.37;;
39214;SDS011;24932;51.746;14.334;2023-03-01T05:20:39;29.13;;;13.0;;
39214;SDS011;24932;51.746;14.334;2023-03-01T05:24:40;32.4;;;12.2;;
39214;SDS011;24932;51.746;14.334;2023-03-01T05:28:40;25.53;;;10.87;;
39214;SDS011;24932;51.746;14.334;2023-03-01T05:32:41;25.07;;;11.77;;
39214;SDS011;24932;51.746;14.334;2023-03-01T05:36:40;29.33;;;12.87;;
39214;SDS011;24932;51.746;14.334;2023-03-01T05:40:41;26.3;;;10.63;;
39214;SDS011;24932;51.746;14.334;2023-03-01T05:44:40;27.4;;;11.7;;
39214;SDS011;24932;51.746;14.334;2023-03-01T05:48:41;37.07;;;12.57;;
39214;SDS011;24932;51.746;14.334;2023-03-01T05:52:40;34.67;;;13.27;;
39214;SDS011;24932;51.746;14.334;2023-03-01T05:56:40;32.23;;;12.27;;
39214;SDS011;24932;51.746;14.334;2023-03-01T06:00:41;32.93;;;11.7;;
39214;SDS011;24932;51.746;14.334;2023-03-01T06:04:40;31.3;;;13.13;;
39214;SDS011;24932;51.746;14.334;2023-03-01T06:08:41;38.03;;;12.73;;
39214;SDS011;24932;51.746;14.334;2023-03-01T06:12:41;26.57;;;12.63;;
39214;SDS011;24932;51.746;14.334;2023-03-01T06:16:40;37.6;;;12.83;;
39214;SDS011;24932;51.746;14.334;2023-03-01T06:20:41;34.53;;;13.2;;
39214;SDS011;24932;51.746;14.334;2023-03-01T06:24:40;33.33;;;14.3;;
39214;SDS011;24932;51.746;14.334;2023-03-01T06:28:40;33.4;;;14.67;;
39214;SDS011;24932;51.746;14.334;2023-03-01T06:32:40;45.83;;;16.03;;
39214;SDS011;24932;51.746;14.334;2023-03-01T06:36:40;34.17;;;16.13;;
39214;SDS011;24932;51.746;14.334;2023-03-01T06:40:40;38.1;;;16.57;;
39214;SDS011;24932;51.746;14.334;2023-03-01T06:44:41;36.77;;;16.3;;
39214;SDS011;24932;51.746;14.334;2023-03-01T06:48:40;35.3;;;17.47;;
39214;SDS011;24932;51.746;14.334;2023-03-01T06:52:40;43.83;;;20.2;;
39214;SDS011;24932;51.746;14.334;2023-03-01T06:56:40;39.57;;;18.43;;
39214;SDS011;24932;51.746;14.334;2023-03-01T07:00:40;40.17;;;19.0;;
39214;SDS011;24932;51.746;14.334;2023-03-01T07:04:39;38.8;;;18.6;;
39214;SDS011;24932;51.746;14.334;2023-03-01T07:08:41;47.27;;;20.93;;
39214;SDS011;24932;51.746;14.334;2023-03-01T07:12:41;37.4;;;18.6;;
39214;SDS011;24932;51.746;14.334;2023-03-01T07:16:40;40.1;;;20.1;;
39214;SDS011;24932;51.746;14.334;2023-03-01T07:20:40;52.93;;;22.8;;
39214;SDS011;24932;51.746;14.334;2023-03-01T07:24:40;48.33;;;22.43;;
39214;SDS011;24932;51.746;14.334;2023-03-01T07:28:41;56.27;;;25.17;;
39214;SDS011;24932;51.746;14.334;2023-03-01T07:32:41;59.63;;;25.43;;
39214;SDS011;24932;51.746;14.334;2023-03-01T07:36:40;53.17;;;26.47;;
39214;SDS011;24932;51.746;14.334;2023-03-01T07:40:41;63.0;;;28.43;;
39214;SDS011;24932;51.746;14.334;2023-03-01T07:44:40;56.2;;;25.7;;
39214;SDS011;24932;51.746;14.334;2023-03-01T07:48:40;56.3;;;26.9;;
39214;SDS011;24932;51.746;14.334;2023-03-01T07:52:40;64.53;;;27.6;;
39214;SDS011;24932;51.746;14.334;2023-03-01T07:56:40;54.53;;;26.63;;
39214;SDS011;24932;51.746;14.334;2023-03-01T08:00:41;57.5;;;25.6;;
39214;SDS011;24932;51.746;14.334;2023-03-01T08:04:40;62.63;;;25.9;;
39214;SDS011;24932;51.746;14.334;2023-03-01T08:08:41;50.33;;;25.17;;
39214;SDS011;24932;51.746;14.334;2023-03-01T08:12:41;61.0;;;24.93;;
39214;SDS011;24932;51.746;14.334;2023-03-01T08:16:41;53.7;;;24.13;;
39214;SDS011;24932;51.746;14.334;2023-03-01T08:20:40;49.53;;;22.97;;
39214;SDS011;24932;51.746;14.334;2023-03-01T08:24:40;42.63;;;22.67;;
39214;SDS011;24932;51.746;14.334;2023-03-01T08:28:39;53.23;;;23.33;;
39214;SDS011;24932;51.746;14.334;2023-03-01T08:32:40;53.0;;;24.0;;
39214;SDS011;24932;51.746;14.334;2023-03-01T08:36:41;49.1;;;21.57;;
39214;SDS011;24932;51.746;14.334;2023-03-01T08:40:40;53.4;;;24.3;;
39214;SDS011;24932;51.746;14.334;2023-03-01T08:44:39;51.37;;;22.03;;
39214;SDS011;24932;51.746;14.334;2023-03-01T08:48:40;53.4;;;24.27;;
39214;SDS011;24932;51.746;14.334;2023-03-01T08:52:40;45.73;;;24.8;;
39214;SDS011;24932;51.746;14.334;2023-03-01T08:56:40;49.03;;;22.53;;
39214;SDS011;24932;51.746;14.334;2023-03-01T09:00:41;50.77;;;22.13;;
39214;SDS011;24932;51.746;14.334;2023-03-01T09:04:40;43.63;;;20.8;;
39214;SDS011;24932;51.746;14.334;2023-03-01T09:08:42;41.07;;;19.03;;
39214;SDS011;24932;51.746;14.334;2023-03-01T09:12:39;41.0;;;18.47;;
39214;SDS011;24932;51.746;14.334;2023-03-01T09:16:40;32.73;;;16.7;;
39214;SDS011;24932;51.746;14.334;2023-03-01T09:20:40;34.0;;;18.43;;
39214;SDS011;24932;51.746;14.334;2023-03-01T09:24:40;38.2;;;17.5;;
39214;SDS011;24932;51.746;14.334;2023-03-01T09:28:40;38.6;;;17.93;;
39214;SDS011;24932;51.746;14.334;2023-03-01T09:32:41;38.6;;;16.57;;
39214;SDS011;24932;51.746;14.334;2023-03-01T09:36:40;32.5;;;15.77;;
39214;SDS011;24932;51.746;14.334;2023-03-01T09:40:42;38.13;;;16.37;;
39214;SDS011;24932;51.746;14.334;2023-03-01T09:44:42;32.43;;;16.2;;
39214;SDS011;24932;51.746;14.334;2023-03-01T09:48:41;34.33;;;16.33;;
39214;SDS011;24932;51.746;14.334;2023-03-01T09:52:41;34.1;;;14.67;;
39214;SDS011;24932;51.746;14.334;2023-03-01T09:56:41;32.17;;;14.17;;
39214;SDS011;24932;51.746;14.334;2023-03-01T10:00:42;24.1;;;11.77;;
39214;SDS011;24932;51.746;14.334;2023-03-01T10:04:41;27.8;;;14.1;;
39214;SDS011;24932;51.746;14.334;2023-03-01T10:08:41;29.57;;;14.77;;
39214;SDS011;24932;51.746;14.334;2023-03-01T10:12:40;24.0;;;12.57;;
39214;SDS011;24932;51.746;14.334;2023-03-01T10:16:41;30.6;;;12.83;;
39214;SDS011;24932;51.746;14.334;2023-03-01T10:20:42;28.9;;;12.87;;
39214;SDS011;24932;51.746;14.334;2023-03-01T10:24:40;25.67;;;10.1;;
39214;SDS011;24932;51.746;14.334;2023-03-01T10:28:42;21.8;;;12.2;;
39214;SDS011;24932;51.746;14.334;2023-03-01T10:32:41;20.47;;;11.47;;
39214;SDS011;24932;51.746;14.334;2023-03-01T10:36:41;25.73;;;12.57;;
39214;SDS011;24932;51.746;14.334;2023-03-01T10:40:56;23.33;;;10.47;;
39214;SDS011;24932;51.746;14.334;2023-03-01T10:44:42;22.37;;;10.47;;
39214;SDS011;24932;51.746;14.334;2023-03-01T10:48:40;22.03;;;10.9;;
39214;SDS011;24932;51.746;14.334;2023-03-01T10:52:40;16.13;;;9.03;;
39214;SDS011;24932;51.746;14.334;2023-03-01T10:56:48;21.57;;;10.77;;
39214;SDS011;24932;51.746;14.334;2023-03-01T11:00:49;21.57;;;9.73;;
39214;SDS011;24932;51.746;14.334;2023-03-01T11:04:41;22.6;;;9.27;;
39214;SDS011;24932;51.746;14.334;2023-03-01T11:08:41;23.8;;;10.2;;
39214;SDS011;24932;51.746;14.334;2023-03-01T11:12:40;18.43;;;9.23;;
39214;SDS011;24932;51.746;14.334;2023-03-01T11:16:41;16.9;;;7.93;;
39214;SDS011;24932;51.746;14.334;2023-03-01T11:20:40;21.87;;;8.7;;
39214;SDS011;24932;51.746;14.334;2023-03-01T11:24:44;22.13;;;8.6;;
39214;SDS011;24932;51.746;14.334;2023-03-01T11:28:40;18.87;;;8.97;;
39214;SDS011;24932;51.746;14.334;2023-03-01T11:32:42;21.5;;;9.37;;
39214;SDS011;24932;51.746;14.334;2023-03-01T11:36:40;17.8;;;8.97;;
39214;SDS011;24932;51.746;14.334;2023-03-01T11:40:41;18.0;;;8.9;;
39214;SDS011;24932;51.746;14.334;2023-03-01T11:44:40;18.1;;;9.27;;
39214;SDS011;24932;51.746;14.334;2023-03-01T11:48:52;18.8;;;8.77;;
39214;SDS011;24932;51.746;14.334;2023-03-01T11:52:42;22.9;;;10.67;;
39214;SDS011;24932;51.746;14.334;2023-03-01T11:56:41;14.13;;;8.43;;
39214;SDS011;24932;51.746;14.334;2023-03-01T12:01:15;13.5;;;7.72;;
39214;SDS011;24932;51.746;14.334;2023-03-01T12:05:00;19.97;;;9.7;;
39214;SDS011;24932;51.746;14.334;2023-03-01T12:08:41;17.0;;;7.93;;
39214;SDS011;24932;51.746;14.334;2023-03-01T12:12:44;19.53;;;9.13;;
39214;SDS011;24932;51.746;14.334;2023-03-01T12:16:45;19.8;;;8.97;;
39214;SDS011;24932;51.746;14.334;2023-03-01T12:20:41;16.97;;;8.2;;
39214;SDS011;24932;51.746;14.334;2023-03-01T12:24:47;15.37;;;8.53;;
39214;SDS011;24932;51.746;14.334;2023-03-01T12:28:44;18.03;;;9.67;;
39214;SDS011;24932;51.746;14.334;2023-03-01T12:32:43;13.83;;;7.53;;
39214;SDS011;24932;51.746;14.334;2023-03-01T12:36:44;13.83;;;6.17;;
39214;SDS011;24932;51.746;14.334;2023-03-01T12:40:44;10.6;;;5.67;;
39214;SDS011;24932;51.746;14.334;2023-03-01T12:44:44;14.87;;;5.78;;
39214;SDS011;24932;51.746;14.334;2023-03-01T12:48:43;11.83;;;6.0;;
39214;SDS011;24932;51.746;14.334;2023-03-01T12:52:41;11.3;;;5.5;;
39214;SDS011;24932;51.746;14.334;2023-03-01T12:56:41;13.38;;;6.0;;
39214;SDS011;24932;51.746;14.334;2023-03-01T13:00:43;13.13;;;6.77;;
39214;SDS011;24932;51.746;14.334;2023-03-01T13:04:45;13.13;;;5.78;;
39214;SDS011;24932;51.746;14.334;2023-03-01T13:08:41;14.23;;;6.13;;
39214;SDS011;24932;51.746;14.334;2023-03-01T13:12:41;19.05;;;6.62;;
39214;SDS011;24932;51.746;14.334;2023-03-01T13:16:40;16.2;;;7.5;;
39214;SDS011;24932;51.746;14.334;2023-03-01T13:20:45;17.73;;;7.83;;
39214;SDS011;24932;51.746;14.334;2023-03-01T13:24:40;20.52;;;9.18;;
39214;SDS011;24932;51.746;14.334;2023-03-01T13:28:47;16.27;;;8.25;;
39214;SDS011;24932;51.746;14.334;2023-03-01T13:32:45;24.67;;;11.07;;
39214;SDS011;24932;51.746;14.334;2023-03-01T13:36:48;19.92;;;10.43;;
39214;SDS011;24932;51.746;14.334;2023-03-01T13:40:57;17.67;;;9.15;;
39214;SDS011;24932;51.746;14.334;2023-03-01T13:44:43;21.98;;;10.82;;
39214;SDS011;24932;51.746;14.334;2023-03-01T13:48:40;21.17;;;8.63;;
39214;SDS011;24932;51.746;14.334;2023-03-01T13:52:43;29.5;;;10.5;;
39214;SDS011;24932;51.746;14.334;2023-03-01T13:56:41;14.95;;;8.55;;
39214;SDS011;24932;51.746;14.334;2023-03-01T14:00:40;17.05;;;8.5;;
39214;SDS011;24932;51.746;14.334;2023-03-01T14:04:40;20.92;;;8.18;;
39214;SDS011;24932;51.746;14.334;2023-03-01T14:08:41;16.37;;;8.38;;
39214;SDS011;24932;51.746;14.334;2023-03-01T14:12:42;20.0;;;8.65;;
39214;SDS011;24932;51.746;14.334;2023-03-01T14:16:42;14.98;;;7.85;;
39214;SDS011;24932;51.746;14.334;2023-03-01T14:20:41;14.6;;;7.43;;
39214;SDS011;24932;51.746;14.334;2023-03-01T14:24:44;14.68;;;6.9;;
39214;SDS011;24932;51.746;14.334;2023-03-01T14:28:41;18.87;;;7.4;;
39214;SDS011;24932;51.746;14.334;2023-03-01T14:32:40;11.32;;;6.12;;
39214;SDS011;24932;51.746;14.334;2023-03-01T14:36:40;14.68;;;7.18;;
39214;SDS011;24932;51.746;14.334;2023-03-01T14:40:41;14.48;;;8.5;;
39214;SDS011;24932;51.746;14.334;2023-03-01T14:44:40;11.75;;;6.68;;
39214;SDS011;24932;51.746;14.334;2023-03-01T14:48:41;10.52;;;6.35;;
39214;SDS011;24932;51.746;14.334;2023-03-01T14:52:41;11.5;;;6.68;;
39214;SDS011;24932;51.746;14.334;2023-03-01T14:56:43;12.2;;;6.9;;
39214;SDS011;24932;51.746;14.334;2023-03-01T15:00:43;10.55;;;6.43;;
39214;SDS011;24932;51.746;14.334;2023-03-01T15:04:40;9.73;;;6.32;;
39214;SDS011;24932;51.746;14.334;2023-03-01T15:08:41;14.13;;;5.53;;
39214;SDS011;24932;51.746;14.334;2023-03-01T15:12:41;9.4;;;5.2;;
39214;SDS011;24932;51.746;14.334;2023-03-01T15:16:40;13.6;;;5.57;;
39214;SDS011;24932;51.746;14.334;2023-03-01T15:20:40;11.32;;;5.2;;
39214;SDS011;24932;51.746;14.334;2023-03-01T15:24:40;10.7;;;4.43;;
39214;SDS011;24932;51.746;14.334;2023-03-01T15:28:42;10.73;;;4.45;;
39214;SDS011;24932;51.746;14.334;2023-03-01T15:32:40;8.77;;;4.6;;
39214;SDS011;24932;51.746;14.334;2023-03-01T15:36:41;13.27;;;5.87;;
39214;SDS011;24932;51.746;14.334;2023-03-01T15:40:48;8.48;;;4.93;;
39214;SDS011;24932;51.746;14.334;2023-03-01T15:44:44;8.8;;;4.53;;
39214;SDS011;24932;51.746;14.334;2023-03-01T15:48:43;8.77;;;5.4;;
39214;SDS011;24932;51.746;14.334;2023-03-01T15:52:41;6.87;;;4.6;;
39214;SDS011;24932;51.746;14.334;2023-03-01T15:56:40;9.5;;;4.62;;
39214;SDS011;24932;51.746;14.334;2023-03-01T16:00:54;12.1;;;5.25;;
39214;SDS011;24932;51.746;14.334;2023-03-01T16:04:40;10.65;;;5.18;;
39214;SDS011;24932;51.746;14.334;2023-03-01T16:08:41;10.2;;;4.25;;
39214;SDS011;24932;51.746;14.334;2023-03-01T16:12:41;8.2;;;3.95;;
39214;SDS011;24932;51.746;14.334;2023-03-01T16:16:40;10.1;;;4.72;;
39214;SDS011;24932;51.746;14.334;2023-03-01T16:20:40;7.73;;;4.2;;
39214;SDS011;24932;51.746;14.334;2023-03-01T16:24:40;10.83;;;4.67;;
39214;SDS011;24932;51.746;14.334;2023-03-01T16:28:39;10.67;;;5.0;;
39214;SDS011;24932;51.746;14.334;2023-03-01T16:32:41;8.77;;;3.8;;
39214;SDS011;24932;51.746;14.334;2023-03-01T16:36:42;11.27;;;4.87;;
39214;SDS011;24932;51.746;14.334;2023-03-01T16:40:40;12.9;;;5.43;;
39214;SDS011;24932;51.746;14.334;2023-03-01T16:44:40;17.17;;;5.1;;
39214;SDS011;24932;51.746;14.334;2023-03-01T16:48:41;11.23;;;5.7;;
39214;SDS011;24932;51.746;14.334;2023-03-01T16:52:40;13.03;;;6.47;;
39214;SDS011;24932;51.746;14.334;2023-03-01T16:56:40;13.17;;;6.33;;
39214;SDS011;24932;51.746;14.334;2023-03-01T17:00:40;10.23;;;5.33;;
39214;SDS011;24932;51.746;14.334;2023-03-01T17:04:40;13.87;;;6.1;;
39214;SDS011;24932;51.746;14.334;2023-03-01T17:08:40;11.97;;;5.6;;
39214;SDS011;24932;51.746;14.334;2023-03-01T17:12:40;10.17;;;4.77;;
39214;SDS011;24932;51.746;14.334;2023-03-01T17:16:40;11.3;;;5.83;;
39214;SDS011;24932;51.746;14.334;2023-03-01T17:20:41;17.9;;;7.97;;
39214;SDS011;24932;51.746;14.334;2023-03-01T17:24:40;19.43;;;8.7;;
39214;SDS011;24932;51.746;14.334;2023-03-01T17:28:41;18.17;;;7.77;;
39214;SDS011;24932;51.746;14.334;2023-03-01T17:32:41;13.4;;;5.97;;
39214;SDS011;24932;51.746;14.334;2023-03-01T17:36:40;13.2;;;5.43;;
39214;SDS011;24932;51.746;14.334;2023-03-01T17:40:40;16.3;;;6.2;;
39214;SDS011;24932;51.746;14.334;2023-03-01T17:44:43;13.83;;;5.57;;
39214;SDS011;24932;51.746;14.334;2023-03-01T17:48:40;17.87;;;6.63;;
39214;SDS011;24932;51.746;14.334;2023-03-01T17:52:41;14.13;;;7.03;;
39214;SDS011;24932;51.746;14.334;2023-03-01T17:56:40;14.93;;;5.9;;
39214;SDS011;24932;51.746;14.334;2023-03-01T18:00:40;15.93;;;6.1;;
39214;SDS011;24932;51.746;14.334;2023-03-01T18:04:41;27.8;;;7.4;;
39214;SDS011;24932;51.746;14.334;2023-03-01T18:08:40;14.6;;;5.9;;
39214;SDS011;24932;51.746;14.334;2023-03-01T18:12:41;14.4;;;5.47;;
39214;SDS011;24932;51.746;14.334;2023-03-01T18:16:40;19.97;;;6.8;;
39214;SDS011;24932;51.746;14.334;2023-03-01T18:20:39;16.3;;;5.83;;
39214;SDS011;24932;51.746;14.334;2023-03-01T18:24:40;15.6;;;6.5;;
39214;SDS011;24932;51.746;14.334;2023-03-01T18:28:40;12.9;;;5.73;;
39214;SDS011;24932;51.746;14.334;2023-03-01T18:32:39;25.5;;;7.73;;
39214;SDS011;24932;51.746;14.334;2023-03-01T18:36:44;19.13;;;7.33;;
39214;SDS011;24932;51.746;14.334;2023-03-01T18:40:40;26.87;;;13.23;;
39214;SDS011;24932;51.746;14.334;2023-03-01T18:44:40;23.57;;;9.63;;
39214;SDS011;24932;51.746;14.334;2023-03-01T18:48:40;25.23;;;9.7;;
39214;SDS011;24932;51.746;14.334;2023-03-01T18:52:41;21.23;;;8.23;;
39214;SDS011;24932;51.746;14.334;2023-03-01T18:56:40;15.43;;;6.8;;
39214;SDS011;24932;51.746;14.334;2023-03-01T19:00:40;19.77;;;8.27;;
39214;SDS011;24932;51.746;14.334;2023-03-01T19:04:40;27.33;;;9.43;;
39214;SDS011;24932;51.746;14.334;2023-03-01T19:08:40;18.03;;;7.7;;
39214;SDS011;24932;51.746;14.334;2023-03-01T19:12:41;25.57;;;10.03;;
39214;SDS011;24932;51.746;14.334;2023-03-01T19:16:40;25.1;;;8.37;;
39214;SDS011;24932;51.746;14.334;2023-03-01T19:20:40;22.3;;;10.13;;
39214;SDS011;24932;51.746;14.334;2023-03-01T19:24:41;23.8;;;8.8;;
39214;SDS011;24932;51.746;14.334;2023-03-01T19:28:40;19.9;;;8.5;;
39214;SDS011;24932;51.746;14.334;2023-03-01T19:32:40;29.2;;;9.6;;
39214;SDS011;24932;51.746;14.334;2023-03-01T19:36:41;19.8;;;9.33;;
39214;SDS011;24932;51.746;14.334;2023-03-01T19:40:40;22.1;;;9.1;;
39214;SDS011;24932;51.746;14.334;2023-03-01T19:44:40;33.63;;;10.4;;
39214;SDS011;24932;51.746;14.334;2023-03-01T19:48:41;30.5;;;9.17;;
39214;SDS011;24932;51.746;14.334;2023-03-01T19:52:40;25.23;;;10.13;;
39214;SDS011;24932;51.746;14.334;2023-03-01T19:56:40;28.03;;;12.03;;
39214;SDS011;24932;51.746;14.334;2023-03-01T20:00:43;23.0;;;9.43;;
39214;SDS011;24932;51.746;14.334;2023-03-01T20:04:40;21.33;;;9.67;;
39214;SDS011;24932;51.746;14.334;2023-03-01T20:08:40;25.23;;;10.27;;
39214;SDS011;24932;51.746;14.334;2023-03-01T20:12:40;32.4;;;11.3;;
39214;SDS011;24932;51.746;14.334;2023-03-01T20:16:40;24.2;;;11.13;;
39214;SDS011;24932;51.746;14.334;2023-03-01T20:20:40;21.77;;;10.3;;
39214;SDS011;24932;51.746;14.334;2023-03-01T20:24:40;25.73;;;10.9;;
39214;SDS011;24932;51.746;14.334;2023-03-01T20:28:43;25.63;;;9.47;;
39214;SDS011;24932;51.746;14.334;2023-03-01T20:32:41;27.37;;;10.4;;
39214;SDS011;24932;51.746;14.334;2023-03-01T20:36:39;28.87;;;12.3;;
39214;SDS011;24932;51.746;14.334;2023-03-01T20:40:39;27.83;;;12.17;;
39214;SDS011;24932;51.746;14.334;2023-03-01T20:44:40;32.4;;;12.97;;
39214;SDS011;24932;51.746;14.334;2023-03-01T20:48:41;31.37;;;12.13;;
39214;SDS011;24932;51.746;14.334;2023-03-01T20:52:47;29.33;;;13.57;;
39214;SDS011;24932;51.746;14.334;2023-03-01T20:56:41;31.63;;;13.67;;
39214;SDS011;24932;51.746;14.334;2023-03-01T21:00:40;32.3;;;14.83;;
39214;SDS011;24932;51.746;14.334;2023-03-01T21:04:40;28.73;;;13.07;;
39214;SDS011;24932;51.746;14.334;2023-03-01T21:08:41;29.9;;;13.4;;
39214;SDS011;24932;51.746;14.334;2023-03-01T21:12:40;31.83;;;14.83;;
39214;SDS011;24932;51.746;14.334;2023-03-01T21:16:41;34.07;;;14.67;;
39214;SDS011;24932;51.746;14.334;2023-03-01T21:20:39;38.9;;;14.87;;
39214;SDS011;24932;51.746;14.334;2023-03-01T21:24:40;30.3;;;12.77;;
39214;SDS011;24932;51.746;14.334;2023-03-01T21:28:41;26.07;;;12.0;;
39214;SDS011;24932;51.746;14.334;2023-03-01T21:32:39;27.3;;;11.33;;
39214;SDS011;24932;51.746;14.334;2023-03-01T21:36:40;23.6;;;10.2;;
39214;SDS011;24932;51.746;14.334;2023-03-01T21:40:40;20.8;;;8.63;;
39214;SDS011;24932;51.746;14.334;2023-03-01T21:44:40;22.27;;;11.2;;
39214;SDS011;24932;51.746;14.334;2023-03-01T21:48:43;18.33;;;9.53;;
39214;SDS011;24932;51.746;14.334;2023-03-01T21:52:41;24.77;;;10.83;;
39214;SDS011;24932;51.746;14.334;2023-03-01T21:56:41;18.83;;;8.73;;
39214;SDS011;24932;51.746;14.334;2023-03-01T22:00:40;21.9;;;9.93;;
39214;SDS011;24932;51.746;14.334;2023-03-01T22:04:40;20.83;;;9.6;;
39214;SDS011;24932;51.746;14.334;2023-03-01T22:08:41;22.93;;;9.67;;
39214;SDS011;24932;51.746;14.334;2023-03-01T22:12:40;26.57;;;9.5;;
39214;SDS011;24932;51.746;14.334;2023-03-01T22:16:41;22.83;;;9.83;;
39214;SDS011;24932;51.746;14.334;2023-03-01T22:20:41;20.2;;;10.03;;
39214;SDS011;24932;51.746;14.334;2023-03-01T22:24:40;24.2;;;9.73;;
39214;SDS011;24932;51.746;14.334;2023-03-01T22:28:41;25.23;;;11.13;;
39214;SDS011;24932;51.746;14.334;2023-03-01T22:32:40;24.5;;;9.87;;
39214;SDS011;24932;51.746;14.334;2023-03-01T22:36:40;22.3;;;10.77;;
39214;SDS011;24932;51.746;14.334;2023-03-01T22:40:40;34.27;;;10.4;;
39214;SDS011;24932;51.746;14.334;2023-03-01T22:44:40;27.97;;;10.43;;
39214;SDS011;24932;51.746;14.334;2023-03-01T22:48:40;23.1;;;11.8;;
39214;SDS011;24932;51.746;14.334;2023-03-01T22:52:40;26.67;;;11.63;;
39214;SDS011;24932;51.746;14.334;2023-03-01T22:56:41;30.07;;;12.63;;
39214;SDS011;24932;51.746;14.334;2023-03-01T23:00:39;26.33;;;11.13;;
39214;SDS011;24932;51.746;14.334;2023-03-01T23:04:40;33.7;;;12.4;;
39214;SDS011;24932;51.746;14.334;2023-03-01T23:08:40;20.0;;;10.4;;
39214;SDS011;24932;51.746;14.334;2023-03-01T23:12:39;27.8;;;11.97;;
39214;SDS011;24932;51.746;14.334;2023-03-01T23:16:40;28.13;;;12.07;;
39214;SDS011;24932;51.746;14.334;2023-03-01T23:20:41;22.5;;;10.03;;
39214;SDS011;24932;51.746;14.334;2023-03-01T23:24:40;25.2;;;10.13;;
39214;SDS011;24932;51.746;14.334;2023-03-01T23:28:41;35.83;;;11.57;;